Aviation Digital Data Service (ADDS)

Output produced by METARs form (0851 UTC 24 March 2019)
found at http://www.aviationweather.gov/metar/data/
 
Forecast for: HLMS (MISRATA , LY)
Text: TAF HLMS 240500Z 2406/2506 03012KT 8000 BKN025
Forecast period: 0600 to 2000 UTC 24 March 2019
Forecast type: FROM: standard forecast or significant change
Winds: from the NNE (30 degrees) at 14 MPH (12 knots; 6.2 m/s)
Visibility: 5 miles (8 km)
Ceiling: 2500 feet AGL
Clouds: broken clouds at 2500 feet AGL
Weather: no significant weather forecast for this period
Text: BECMG 2420/2422 VRB02KT
Forecast period: 2000 UTC 24 March 2019 to 0600 UTC 25 March 2019
Forecast type: BECOMING: Conditions expected to become as follows by 2200 UTC 24 March 2019
Winds: variable direction winds at 2 MPH (2 knots; 1.0 m/s)
Visibility: 5 miles (8 km)
Ceiling: 2500 feet AGL
Clouds: broken clouds at 2500 feet AGL
Weather: no significant weather forecast for this period
Text: PROB40 2503/2506 3000 BR NSC
Forecast period: 0300 to 0600 UTC 25 March 2019
Forecast type: PROBABLE: 40 percent likelihood of the following during this time
Visibility: 1.86 miles (2.99 km)
Ceiling: unknown
Clouds: missing
Weather: BR  (mist)